Time;durP1;ratioP1;P1;durP2;ratioP2;P2;SDS_P1;SDS_P2;PMS_P1;PMS_P2;Temp;Humidity;BMP_temperature;BMP_pressure;BME280_temperature;BME280_humidity;BME280_pressure;Samples;Min_cycle;Max_cycle;Signal;HPM_P1;HPM_P2
2022/11/22 11:41:40;;;;;;;3.35;1.20;;;;;;;17.77;61.59;98478.19;4924704;28;20387;-83
2022/11/22 11:44:33;;;;;;;2.63;1.00;;;;;;;17.76;60.74;98473.84;4820671;29;20065;-89
2022/11/22 11:47:02;;;;;;;3.45;0.82;;;;;;;17.77;60.76;98463.97;4826742;29;20058;-93
2022/11/22 11:49:33;;;;;;;6.90;0.85;;;;;;;17.78;60.94;98479.88;4826194;29;20081;-86
2022/11/22 11:52:05;;;;;;;6.70;1.20;;;;;;;17.79;62.97;98468.16;4824583;29;20054;-85
2022/11/22 11:54:47;;;;;;;2.45;0.73;;;;;;;17.79;63.26;98470.00;4824420;29;20135;-85
2022/11/22 11:57:15;;;;;;;4.85;1.08;;;;;;;17.78;62.89;98479.88;4824458;29;20439;-87
2022/11/22 11:59:45;;;;;;;2.20;0.82;;;;;;;17.78;63.17;98484.34;4824949;29;20099;-86
2022/11/22 12:02:21;;;;;;;3.65;0.93;;;;;;;17.78;63.96;98501.28;4825187;29;20058;-85
2022/11/22 12:04:55;;;;;;;5.35;1.08;;;;;;;17.77;63.45;98494.22;4825295;29;20081;-87
2022/11/22 12:07:36;;;;;;;3.67;1.10;;;;;;;17.78;63.52;98493.25;4825062;29;20056;-84
2022/11/22 12:10:25;;;;;;;2.55;0.80;;;;;;;17.77;63.01;98502.25;4825128;29;20534;-86
2022/11/22 12:13:20;;;;;;;3.53;0.95;;;;;;;17.78;63.76;98498.59;4824756;29;20046;-88
2022/11/22 12:15:57;;;;;;;4.32;1.20;;;;;;;17.78;62.91;98519.16;4857613;29;20061;-87
2022/11/22 12:18:50;;;;;;;4.20;0.95;;;;;;;17.77;62.04;98510.28;4901257;29;20052;-87
2022/11/22 12:21:23;;;;;;;4.35;1.00;;;;;;;17.77;61.88;98518.31;4884060;29;20400;-85
2022/11/22 12:23:56;;;;;;;;;;;;;;;17.78;63.30;98525.38;4899194;29;20546;-86
2022/11/22 12:26:43;;;;;;;4.93;1.17;;;;;;;17.77;63.16;98512.97;4900406;29;19931;-85
2022/11/22 12:29:12;;;;;;;3.60;1.20;;;;;;;17.76;61.40;98532.72;4898548;29;20060;-84
2022/11/22 12:32:21;;;;;;;1.98;0.75;;;;;;;17.76;60.97;98540.75;4900278;29;20060;-85
2022/11/22 12:35:09;;;;;;;5.50;1.20;;;;;;;17.77;59.57;98550.44;4824790;29;20062;-85
2022/11/22 12:37:45;;;;;;;4.43;0.95;;;;;;;17.78;62.15;98549.44;4818257;29;20063;-80
2022/11/22 12:40:17;;;;;;;3.58;0.90;;;;;;;17.77;59.92;98537.06;4805493;29;20062;-81
2022/11/22 12:42:44;;;;;;;3.65;0.85;;;;;;;17.77;59.52;98554.97;4812055;29;20439;-82
2022/11/22 12:45:36;;;;;;;3.13;0.70;;;;;;;17.74;60.10;98561.50;4824081;29;20061;-81
2022/11/22 12:48:36;;;;;;;6.40;0.93;;;;;;;17.73;60.63;98557.13;4824051;29;20067;-83
2022/11/22 12:51:12;;;;;;;3.35;0.90;;;;;;;17.74;61.78;98568.66;4824337;29;20100;-83
2022/11/22 12:53:43;;;;;;;4.28;0.90;;;;;;;17.72;61.66;98571.50;4822922;29;20059;-84
2022/11/22 12:56:20;;;;;;;3.53;0.80;;;;;;;17.72;61.96;98568.84;4823825;29;20062;-83
2022/11/22 12:59:05;;;;;;;2.45;0.60;;;;;;;17.73;62.13;98575.03;4824439;29;20073;-83
2022/11/22 13:01:41;;;;;;;3.15;0.90;;;;;;;17.72;61.12;98587.56;4824763;29;20059;-83
2022/11/22 13:04:08;;;;;;;2.10;0.80;;;;;;;17.69;60.28;98590.59;4823749;29;20054;-86
2022/11/22 13:06:54;;;;;;;3.90;0.90;;;;;;;17.70;62.12;98589.59;4823662;29;20073;-81
2022/11/22 13:09:34;;;;;;;2.35;0.65;;;;;;;17.70;61.71;98599.44;4805333;29;20062;-84
2022/11/22 13:12:07;;;;;;;1.83;0.57;;;;;;;17.69;62.08;98593.28;4841468;29;20057;-84
2022/11/22 13:14:38;;;;;;;3.13;0.73;;;;;;;17.69;61.99;98603.97;4864318;29;20056;-83
2022/11/22 13:17:11;;;;;;;4.13;0.73;;;;;;;17.69;61.73;98603.16;4871986;29;20497;-82
2022/11/22 13:19:51;;;;;;;;;;;;;;;17.68;62.13;98607.66;4880361;29;20060;-82
2022/11/22 13:22:24;;;;;;;4.97;0.70;;;;;;;17.68;62.21;98623.72;4904351;29;19924;-84
2022/11/22 13:25:01;;;;;;;2.40;0.90;;;;;;;17.69;62.62;98627.22;4883039;29;20408;-82
2022/11/22 13:27:33;;;;;;;3.83;0.68;;;;;;;17.68;62.48;98625.56;4882651;29;20060;-84
2022/11/22 13:30:01;;;;;;;2.33;0.88;;;;;;;17.67;62.56;98622.06;4883597;29;20053;-84
2022/11/22 13:32:31;;;;;;;2.72;0.60;;;;;;;17.68;62.55;98631.75;4899587;29;20055;-84
2022/11/22 13:35:11;;;;;;;3.60;0.65;;;;;;;17.68;62.51;98644.28;4899442;29;20073;-84
2022/11/22 13:37:44;;;;;;;4.10;0.93;;;;;;;17.67;62.71;98648.81;4882795;29;20049;-83
2022/11/22 13:40:15;;;;;;;4.72;0.88;;;;;;;17.67;62.73;98638.13;4899698;29;20512;-83
2022/11/22 13:42:42;;;;;;;1.92;0.80;;;;;;;17.68;62.75;98655.00;4912654;29;20044;-83
2022/11/22 13:45:23;;;;;;;2.72;0.80;;;;;;;17.67;62.71;98658.69;4901868;29;20060;-84
2022/11/22 13:47:51;;;;;;;5.05;0.90;;;;;;;17.67;62.59;98674.75;4901419;29;20052;-85
2022/11/22 13:51:00;;;;;;;1.90;0.77;;;;;;;17.67;62.48;98682.78;4900978;29;20060;-85
2022/11/22 13:53:30;;;;;;;4.22;1.15;;;;;;;17.67;62.67;98686.28;4900880;29;20492;-85
2022/11/22 13:56:20;;;;;;;1.83;0.88;;;;;;;17.67;62.59;98690.81;4901277;29;20063;-85
2022/11/22 13:58:50;;;;;;;3.00;0.90;;;;;;;17.67;62.57;98690.81;4918734;29;20052;-84
2022/11/22 14:01:41;;;;;;;3.90;0.77;;;;;;;17.67;62.43;98698.81;4919017;29;20059;-85
2022/11/22 14:04:15;;;;;;;3.67;1.02;;;;;;;17.66;62.06;98697.13;4885506;29;20075;-84
2022/11/22 14:06:50;;;;;;;1.75;0.70;;;;;;;17.66;62.29;98705.16;4885806;29;20051;-84
2022/11/22 14:09:23;;;;;;;3.13;0.60;;;;;;;17.66;62.29;98710.50;4886416;29;20048;-84
2022/11/22 14:12:00;;;;;;;1.77;0.60;;;;;;;17.66;62.22;98715.88;4901885;29;20057;-84
2022/11/22 14:14:53;;;;;;;1.80;0.85;;;;;;;17.65;62.25;98709.69;4885944;29;20068;-85
2022/11/22 14:17:45;;;;;;;1.38;0.60;;;;;;;17.65;62.18;98717.72;4903859;29;20056;-84
2022/11/22 14:20:18;;;;;;;2.22;0.80;;;;;;;17.64;62.21;98718.72;4901493;29;20552;-84
2022/11/22 14:22:58;;;;;;;;;;;;;;;17.64;62.21;98721.41;4914638;29;20056;-84
2022/11/22 14:25:56;;;;;;;2.20;0.63;;;;;;;17.64;62.04;98732.09;4903059;29;19923;-81
2022/11/22 14:28:38;;;;;;;1.83;0.50;;;;;;;17.64;62.21;98734.78;4940767;29;20048;-82
2022/11/22 14:31:30;;;;;;;4.20;0.93;;;;;;;17.63;62.06;98730.44;4923536;29;20056;-82
2022/11/22 14:34:14;;;;;;;1.73;0.55;;;;;;;17.63;61.88;98737.63;4911612;29;20551;-82
2022/11/22 14:37:05;;;;;;;2.33;0.73;;;;;;;17.64;61.88;98744.66;4921846;29;20056;-85
2022/11/22 14:39:44;;;;;;;1.83;0.65;;;;;;;17.63;61.68;98749.19;4921815;29;20052;-86
2022/11/22 14:42:35;;;;;;;3.20;0.55;;;;;;;17.63;61.91;98757.19;4904116;29;20068;-84
2022/11/22 14:45:10;;;;;;;2.13;0.65;;;;;;;17.63;61.83;98765.22;4829363;29;20062;-85
2022/11/22 14:47:44;;;;;;;2.03;0.80;;;;;;;17.62;61.77;98763.53;4829347;29;20054;-85
2022/11/22 14:50:39;;;;;;;0.95;0.40;;;;;;;17.63;61.60;98769.75;4826185;29;20077;-84
2022/11/22 14:53:45;;;;;;;1.98;0.50;;;;;;;17.62;61.96;98771.56;4826153;29;20074;-84
2022/11/22 14:56:21;;;;;;;2.30;0.85;;;;;;;17.62;61.61;98779.59;4826187;29;20062;-83
2022/11/22 14:59:26;;;;;;;3.25;0.50;;;;;;;17.62;61.48;98776.91;4834085;29;20058;-84
2022/11/22 15:01:55;;;;;;;1.67;0.77;;;;;;;17.62;61.39;98776.91;4844591;29;20061;-84
2022/11/22 15:04:44;;;;;;;2.42;0.55;;;;;;;17.61;61.39;98775.25;4844608;29;20095;-84
2022/11/22 15:08:00;;;;;;;6.25;0.82;;;;;;;17.62;61.37;98778.75;4844800;29;20112;-84
2022/11/22 15:11:13;;;;;;;1.52;0.60;;;;;;;17.61;61.34;98780.59;4826984;29;20066;-84
2022/11/22 15:13:43;;;;;;;3.53;0.75;;;;;;;17.61;61.32;98788.63;4845453;29;20054;-85
2022/11/22 15:16:27;;;;;;;2.80;0.88;;;;;;;17.60;61.17;98791.50;4844880;29;20498;-85
2022/11/22 15:19:37;;;;;;;3.33;0.70;;;;;;;17.60;61.14;98792.31;4828765;29;20061;-82
2022/11/22 15:22:27;;;;;;;2.17;0.70;;;;;;;17.59;61.05;98801.34;4872843;29;20060;-83
2022/11/22 15:25:17;;;;;;;1.70;0.60;;;;;;;17.59;61.44;98809.38;4900762;29;20060;-83
2022/11/22 15:28:05;;;;;;;3.42;0.68;;;;;;;17.60;60.91;98810.22;4920873;29;20052;-83
2022/11/22 15:30:56;;;;;;;2.53;0.80;;;;;;;17.58;60.85;98818.38;4921261;29;20056;-83
2022/11/22 15:33:46;;;;;;;3.92;0.65;;;;;;;17.58;60.62;98831.78;4919593;29;20063;-83
2022/11/22 15:36:45;;;;;;;1.48;0.60;;;;;;;17.59;60.71;98829.97;4921078;29;20488;-83
2022/11/22 15:39:36;;;;;;;2.83;0.88;;;;;;;17.59;60.65;98837.97;4919356;29;20052;-83
2022/11/22 15:42:23;;;;;;;3.78;1.10;;;;;;;17.57;60.55;98840.81;4906303;29;20420;-83
2022/11/22 15:45:12;;;;;;;1.88;0.60;;;;;;;17.59;60.48;98837.97;4903181;29;20531;-82
2022/11/22 15:48:16;;;;;;;1.42;0.70;;;;;;;17.58;60.32;98842.47;4906862;29;20052;-82
2022/11/22 15:51:08;;;;;;;3.15;0.90;;;;;;;17.60;60.39;98851.19;4920800;29;20480;-82
2022/11/22 15:53:58;;;;;;;1.90;0.80;;;;;;;17.58;60.13;98850.50;4902391;29;20052;-82
2022/11/22 15:57:04;;;;;;;2.17;0.70;;;;;;;17.58;60.15;98865.72;4919994;29;20500;-80
2022/11/22 15:59:41;;;;;;;3.10;0.80;;;;;;;17.57;60.28;98864.06;4918698;29;20062;-81
2022/11/22 16:02:13;;;;;;;2.35;1.00;;;;;;;17.57;60.13;98869.41;4919887;29;20056;-81
2022/11/22 16:04:50;;;;;;;3.63;0.77;;;;;;;17.57;59.98;98872.91;4920003;29;20075;-79
2022/11/22 16:07:42;;;;;;;3.53;0.75;;;;;;;17.58;59.95;98866.56;4920170;29;20052;-81
2022/11/22 16:10:36;;;;;;;1.60;0.63;;;;;;;17.58;59.96;98881.78;4902172;29;20417;-80
2022/11/22 16:13:25;;;;;;;2.60;1.13;;;;;;;17.57;60.00;98888.13;4919780;29;20051;-81
2022/11/22 16:16:10;;;;;;;1.70;0.60;;;;;;;17.58;59.82;98895.97;4919728;29;20059;-81
2022/11/22 16:18:39;;;;;;;2.38;0.68;;;;;;;17.57;59.92;98888.97;4902620;29;20059;-81
2022/11/22 16:21:12;;;;;;;1.48;0.70;;;;;;;17.57;59.89;98899.66;4919799;29;20056;-80
2022/11/22 16:23:40;;;;;;;1.83;0.75;;;;;;;17.57;59.73;98899.66;4919835;29;20044;-81
2022/11/22 16:26:16;;;;;;;2.20;0.80;;;;;;;17.57;59.75;98899.66;4902947;29;20051;-81
2022/11/22 16:28:48;;;;;;;2.40;0.65;;;;;;;17.57;59.41;98901.50;4902776;29;20051;-81
2022/11/22 16:31:26;;;;;;;2.25;0.75;;;;;;;17.56;59.47;98903.34;4902260;29;20056;-80
2022/11/22 16:33:54;;;;;;;1.58;0.55;;;;;;;17.57;59.39;98898.84;4919536;29;20499;-82
2022/11/22 16:36:26;;;;;;;2.40;0.70;;;;;;;17.56;59.61;98898.00;4920000;29;20051;-81
2022/11/22 16:38:54;;;;;;;2.80;0.90;;;;;;;17.58;59.41;98900.50;4919802;29;20052;-81
2022/11/22 16:41:26;;;;;;;5.30;1.13;;;;;;;17.58;59.35;98912.03;4901669;29;20295;-81
2022/11/22 16:43:58;;;;;;;2.25;0.80;;;;;;;17.58;58.91;98906.69;4918979;29;20473;-82
2022/11/22 16:46:25;;;;;;;3.97;1.00;;;;;;;17.58;59.40;98912.03;4919405;29;20071;-82
2022/11/22 16:48:54;;;;;;;2.35;1.00;;;;;;;17.59;59.02;98910.22;4919350;29;20412;-82
2022/11/22 16:51:24;;;;;;;1.40;0.73;;;;;;;17.59;58.92;98913.72;4919942;29;20052;-82
2022/11/22 16:53:52;;;;;;;3.67;0.82;;;;;;;17.59;58.93;98915.56;4919686;29;20051;-82
2022/11/22 16:56:22;;;;;;;2.17;0.80;;;;;;;17.57;58.78;98915.72;4919736;29;20052;-83
2022/11/22 16:58:51;;;;;;;4.05;0.70;;;;;;;17.58;58.79;98921.91;4898756;29;20052;-82
2022/11/22 17:01:25;;;;;;;1.83;0.82;;;;;;;17.57;58.89;98918.41;4899969;29;20059;-82
2022/11/22 17:03:56;;;;;;;1.55;0.65;;;;;;;17.56;58.74;98930.13;4882543;29;20049;-81
2022/11/22 17:06:26;;;;;;;1.65;0.65;;;;;;;17.55;58.79;98934.63;4898440;29;20060;-82
2022/11/22 17:08:55;;;;;;;2.75;0.80;;;;;;;17.55;58.63;98942.66;4917365;29;20054;-82
2022/11/22 17:11:29;;;;;;;2.25;0.95;;;;;;;17.56;58.60;98951.50;4937334;29;20052;-82
2022/11/22 17:13:58;;;;;;;1.95;0.90;;;;;;;17.56;58.68;98962.22;4920450;29;20056;-82
2022/11/22 17:16:25;;;;;;;2.90;0.70;;;;;;;17.55;58.59;98957.88;4937570;29;20389;-82
2022/11/22 17:18:53;;;;;;;1.63;0.73;;;;;;;17.55;58.48;98968.59;4925065;29;20059;-82
2022/11/22 17:21:28;;;;;;;2.13;0.63;;;;;;;17.55;58.62;98971.25;4919202;29;20408;-81
2022/11/22 17:24:05;;;;;;;2.05;0.75;;;;;;;17.54;58.37;98972.22;4919154;29;20051;-81
2022/11/22 17:26:33;;;;;;;1.23;0.50;;;;;;;17.54;58.53;98973.09;4918068;29;20054;-81
2022/11/22 17:29:01;;;;;;;4.25;0.85;;;;;;;17.54;58.49;98977.59;4918451;29;20055;-81
2022/11/22 17:31:28;;;;;;;3.10;0.73;;;;;;;17.54;58.44;98985.63;4918159;29;20052;-81
2022/11/22 17:33:57;;;;;;;2.00;0.60;;;;;;;17.53;58.39;98989.28;4918200;29;20051;-80
2022/11/22 17:36:30;;;;;;;2.17;0.80;;;;;;;17.54;58.48;98982.94;4901580;29;20048;-80
2022/11/22 17:38:59;;;;;;;;;;;;;;;17.54;58.31;98988.28;4918769;29;20063;-80
2022/11/22 17:41:26;;;;;;;2.38;0.93;;;;;;;17.53;58.47;98994.66;4917946;29;19930;-81
2022/11/22 17:43:54;;;;;;;2.63;0.60;;;;;;;17.53;58.32;99002.69;4919123;29;20415;-80
2022/11/22 17:46:22;;;;;;;1.85;0.80;;;;;;;17.53;58.29;99005.34;4918289;29;20051;-81
2022/11/22 17:48:54;;;;;;;1.90;0.70;;;;;;;17.52;58.34;99012.53;4918784;29;20048;-81
2022/11/22 17:51:23;;;;;;;1.83;0.50;;;;;;;17.53;58.50;99016.06;4918950;29;20056;-81
2022/11/22 17:53:50;;;;;;;1.40;0.45;;;;;;;17.53;58.14;99016.06;4918582;29;20056;-81
2022/11/22 17:56:18;;;;;;;2.10;0.65;;;;;;;17.52;58.33;99023.25;4901283;29;20048;-80
2022/11/22 17:58:46;;;;;;;2.30;0.80;;;;;;;17.53;58.21;99029.44;4918290;29;20044;-81
2022/11/22 18:01:16;;;;;;;1.33;0.60;;;;;;;17.52;58.17;99031.28;4918228;29;20052;-80
2022/11/22 18:03:44;;;;;;;1.88;0.70;;;;;;;17.52;58.20;99038.47;4919616;29;20056;-80
2022/11/22 18:06:13;;;;;;;2.15;1.00;;;;;;;17.52;58.01;99046.50;4917954;29;20057;-80
2022/11/22 18:08:40;;;;;;;1.55;0.65;;;;;;;17.52;58.04;99041.97;4918228;29;20055;-80
2022/11/22 18:11:14;;;;;;;2.10;0.70;;;;;;;17.53;58.06;99056.19;4918432;29;20056;-80
2022/11/22 18:13:42;;;;;;;2.33;0.82;;;;;;;17.52;58.20;99058.03;4900884;29;20052;-80
2022/11/22 18:16:12;;;;;;;2.50;0.85;;;;;;;17.53;58.03;99069.56;4900735;29;20051;-81
2022/11/22 18:18:40;;;;;;;1.95;0.70;;;;;;;17.53;58.25;99061.53;4917755;29;20082;-82
2022/11/22 18:21:23;;;;;;;2.15;0.73;;;;;;;17.53;58.25;99075.75;4917453;29;20059;-79
2022/11/22 18:23:51;;;;;;;3.33;1.00;;;;;;;17.54;58.28;99076.56;4917304;29;20055;-80
2022/11/22 18:26:18;;;;;;;2.60;0.60;;;;;;;17.55;58.49;99091.66;4916920;29;20040;-80
2022/11/22 18:29:06;;;;;;;2.75;0.73;;;;;;;17.55;58.57;99094.34;4909989;29;20063;-80
2022/11/22 18:31:54;;;;;;;2.85;0.82;;;;;;;17.55;58.83;99088.97;4917580;29;20052;-80
2022/11/22 18:34:21;;;;;;;2.42;0.95;;;;;;;17.56;59.03;99104.03;4916964;29;20052;-80
2022/11/22 18:36:50;;;;;;;2.92;1.10;;;;;;;17.57;59.14;99103.03;4917152;29;20064;-80
2022/11/22 18:39:35;;;;;;;1.52;0.70;;;;;;;17.58;59.33;99103.84;4918168;29;20051;-80
2022/11/22 18:42:13;;;;;;;3.50;0.90;;;;;;;17.60;59.41;99107.22;4917111;29;20056;-80
2022/11/22 18:44:41;;;;;;;2.35;0.90;;;;;;;17.60;59.22;99118.75;4917377;29;20047;-81
2022/11/22 18:47:08;;;;;;;1.95;0.70;;;;;;;17.59;59.34;99122.44;4917543;29;20047;-81
2022/11/22 18:49:36;;;;;;;2.72;0.90;;;;;;;17.60;59.37;99116.09;4917467;29;20055;-80
2022/11/22 18:52:04;;;;;;;4.63;1.20;;;;;;;17.60;59.57;99120.59;4919088;29;20051;-80
2022/11/22 18:54:31;;;;;;;4.35;1.00;;;;;;;17.60;59.31;99115.25;4903368;29;20080;-80
2022/11/22 18:56:59;;;;;;;3.38;1.20;;;;;;;17.60;59.45;99131.31;4920523;29;20048;-78
2022/11/22 18:59:26;;;;;;;1.95;0.80;;;;;;;17.59;59.23;99135.81;4903555;29;20052;-80
2022/11/22 19:01:54;;;;;;;2.33;1.02;;;;;;;17.59;59.16;99138.50;4920540;29;20048;-80
2022/11/22 19:04:21;;;;;;;2.38;0.88;;;;;;;17.60;59.26;99148.19;4920382;29;20056;-79
2022/11/22 19:06:49;;;;;;;4.03;1.08;;;;;;;17.59;59.23;99140.34;4903907;29;20052;-80
2022/11/22 19:09:16;;;;;;;2.67;1.05;;;;;;;17.58;59.15;99142.16;4920209;29;20048;-80
2022/11/22 19:11:43;;;;;;;2.15;0.82;;;;;;;17.60;59.12;99145.50;4920035;29;20044;-81
2022/11/22 19:14:10;;;;;;;4.05;0.88;;;;;;;17.58;59.18;99147.50;4920388;29;20059;-80
2022/11/22 19:16:38;;;;;;;1.75;0.90;;;;;;;17.58;59.23;99152.84;4920995;29;20476;-79
2022/11/22 19:19:07;;;;;;;1.50;0.63;;;;;;;17.58;59.35;99147.50;4920308;29;20515;-80
2022/11/22 19:21:34;;;;;;;4.20;1.10;;;;;;;17.60;59.63;99147.34;4903603;29;20496;-80
2022/11/22 19:24:01;;;;;;;3.03;1.30;;;;;;;17.60;59.79;99147.34;4919303;29;20059;-80
2022/11/22 19:26:28;;;;;;;3.47;1.15;;;;;;;17.60;59.88;99156.22;4920046;29;20044;-80
2022/11/22 19:28:58;;;;;;;3.25;1.00;;;;;;;17.59;60.06;99143.84;4919489;29;20523;-80
2022/11/22 19:31:27;;;;;;;2.58;1.10;;;;;;;17.60;60.29;99148.19;4920827;29;20048;-80
2022/11/22 19:33:58;;;;;;;3.58;1.25;;;;;;;17.61;60.43;99152.53;4919922;29;20056;-80
2022/11/22 19:36:27;;;;;;;3.85;1.30;;;;;;;17.62;60.79;99159.56;4920760;29;20051;-81
2022/11/22 19:39:02;;;;;;;2.70;1.40;;;;;;;17.63;60.67;99157.75;4920384;29;20048;-80
2022/11/22 19:41:30;;;;;;;3.40;1.38;;;;;;;17.63;60.88;99149.72;4902415;29;20064;-81
2022/11/22 19:43:57;;;;;;;2.92;1.60;;;;;;;17.63;60.78;99158.56;4939688;29;20047;-80
2022/11/22 19:46:25;;;;;;;4.78;1.55;;;;;;;17.63;60.77;99149.72;4921657;29;20047;-80
2022/11/22 19:48:54;;;;;;;4.63;1.55;;;;;;;17.63;61.05;99134.50;4939262;29;20052;-80
2022/11/22 19:51:22;;;;;;;4.95;1.42;;;;;;;17.64;61.16;99135.31;4939061;29;20377;-80
2022/11/22 19:53:57;;;;;;;2.95;1.33;;;;;;;17.64;60.92;99138.00;4922263;29;20516;-80
2022/11/22 19:56:28;;;;;;;3.17;1.60;;;;;;;17.64;60.85;99146.88;4938801;29;20039;-79
2022/11/22 19:58:57;;;;;;;6.43;1.30;;;;;;;17.65;60.73;99145.03;4938994;29;20051;-79
2022/11/22 20:01:26;;;;;;;3.40;1.20;;;;;;;17.65;60.52;99151.22;4938514;29;20416;-79
2022/11/22 20:04:14;;;;;;;2.42;1.30;;;;;;;17.65;60.61;99159.25;4938067;29;20048;-79
2022/11/22 20:06:41;;;;;;;3.03;1.42;;;;;;;17.66;60.60;99155.59;4938964;29;20074;-79
2022/11/22 20:09:15;;;;;;;2.97;1.35;;;;;;;17.66;60.37;99155.59;4919722;29;20048;-79
2022/11/22 20:11:44;;;;;;;2.95;1.23;;;;;;;17.65;60.45;99150.38;4925356;29;20056;-80
2022/11/22 20:14:11;;;;;;;3.17;1.05;;;;;;;17.65;60.42;99159.25;4919611;29;20059;-79
2022/11/22 20:16:41;;;;;;;5.07;1.65;;;;;;;17.67;60.31;99156.41;4919036;29;20052;-79
2022/11/22 20:19:11;;;;;;;3.97;1.40;;;;;;;17.66;60.22;99158.25;4919594;29;20075;-79
2022/11/22 20:21:38;;;;;;;3.03;1.20;;;;;;;17.67;60.25;99167.13;4919785;29;20051;-79
2022/11/22 20:24:06;;;;;;;3.28;1.20;;;;;;;17.67;60.21;99169.81;4918947;29;20492;-80
2022/11/22 20:26:34;;;;;;;3.55;1.50;;;;;;;17.68;60.08;99174.16;4918326;29;20048;-79
2022/11/22 20:29:05;;;;;;;3.38;1.52;;;;;;;17.67;60.27;99189.38;4916023;29;20082;-80
2022/11/22 20:31:35;;;;;;;5.70;1.70;;;;;;;17.68;60.01;99190.22;4919124;29;20059;-80
2022/11/22 20:34:03;;;;;;;3.42;1.88;;;;;;;17.67;60.15;99194.72;4901896;29;20068;-81
2022/11/22 20:36:33;;;;;;;3.35;1.40;;;;;;;17.68;60.30;99204.41;4919355;29;20052;-80
2022/11/22 20:39:00;;;;;;;3.67;1.80;;;;;;;17.68;60.14;99212.44;4901179;29;20048;-80
2022/11/22 20:41:35;;;;;;;3.35;1.75;;;;;;;17.69;60.14;99214.13;4918601;29;20079;-80
2022/11/22 20:44:02;;;;;;;4.38;1.90;;;;;;;17.69;60.22;99207.94;4919079;29;20055;-83
2022/11/22 20:46:30;;;;;;;3.63;2.03;;;;;;;17.68;60.09;99214.28;4930358;29;20055;-80
2022/11/22 20:48:57;;;;;;;4.30;2.15;;;;;;;17.68;60.13;99212.44;4937851;29;20049;-79
2022/11/22 20:51:27;;;;;;;3.50;1.85;;;;;;;17.68;60.08;99217.81;4938131;29;20054;-80
2022/11/22 20:53:55;;;;;;;3.33;2.15;;;;;;;17.69;60.09;99230.19;4920554;29;20058;-80
2022/11/22 20:56:24;;;;;;;4.88;2.10;;;;;;;17.69;60.20;99224.81;4937917;29;20108;-82
2022/11/22 20:58:52;;;;;;;5.10;2.20;;;;;;;17.69;60.29;99230.19;4938147;29;20144;-82
2022/11/22 21:01:21;;;;;;;4.20;2.30;;;;;;;17.69;60.26;99226.66;4937764;29;20396;-81
2022/11/22 21:03:49;;;;;;;4.82;2.05;;;;;;;17.70;60.52;99239.03;4938383;29;20431;-82
2022/11/22 21:06:18;;;;;;;3.80;2.40;;;;;;;17.70;60.46;99239.03;4921927;29;20044;-80
2022/11/22 21:08:46;;;;;;;3.65;2.22;;;;;;;17.69;60.33;99238.22;4937713;29;20048;-80
2022/11/22 21:11:18;;;;;;;3.67;2.28;;;;;;;17.69;60.15;99240.88;4920116;29;20059;-80
2022/11/22 21:13:47;;;;;;;4.00;2.80;;;;;;;17.69;59.89;99235.53;4938215;29;20056;-80
2022/11/22 21:16:20;;;;;;;5.88;2.30;;;;;;;17.69;59.94;99246.22;4936807;29;20048;-80
2022/11/22 21:18:52;;;;;;;4.20;2.50;;;;;;;17.69;60.03;99254.25;4937427;29;20047;-80
2022/11/22 21:21:24;;;;;;;4.95;2.50;;;;;;;17.69;59.78;99250.75;4937459;29;20051;-80
2022/11/22 21:23:53;;;;;;;4.78;2.88;;;;;;;17.69;60.08;99250.75;4937984;29;20070;-80
2022/11/22 21:26:22;;;;;;;3.30;2.20;;;;;;;17.69;59.97;99251.59;4937506;29;20048;-77
2022/11/22 21:28:51;;;;;;;5.53;2.33;;;;;;;17.69;59.77;99256.94;4932217;29;20047;-81
2022/11/22 21:31:20;;;;;;;4.15;2.45;;;;;;;17.69;59.65;99251.59;4917572;29;20055;-77
2022/11/22 21:33:48;;;;;;;4.68;2.50;;;;;;;17.69;59.37;99253.44;4918024;29;20048;-80
2022/11/22 21:36:15;;;;;;;5.57;2.55;;;;;;;17.69;59.68;99250.75;4917153;29;20044;-79
2022/11/22 21:38:43;;;;;;;4.55;2.80;;;;;;;17.68;59.63;99255.28;4917832;29;20059;-79
2022/11/22 21:41:16;;;;;;;6.97;3.47;;;;;;;17.69;59.70;99256.94;4917562;29;20404;-79
2022/11/22 21:44:04;;;;;;;9.75;4.38;;;;;;;17.69;59.93;99251.59;4917847;29;20508;-79
2022/11/22 21:46:31;;;;;;;11.05;4.95;;;;;;;17.69;60.11;99256.94;4917680;29;20052;-79
2022/11/22 21:48:58;;;;;;;9.95;5.43;;;;;;;17.69;60.37;99259.63;4917832;29;20059;-79
2022/11/22 21:51:25;;;;;;;10.60;5.68;;;;;;;17.69;60.40;99261.47;4900854;29;20048;-80
2022/11/22 21:53:57;;;;;;;12.95;5.97;;;;;;;17.70;60.53;99253.28;4918284;29;20051;-80
2022/11/22 21:56:25;;;;;;;10.93;5.78;;;;;;;17.70;60.42;99257.78;4917732;29;20048;-79
2022/11/22 21:58:53;;;;;;;11.88;6.05;;;;;;;17.68;60.64;99263.31;4917825;29;20056;-79
2022/11/22 22:01:21;;;;;;;11.40;5.97;;;;;;;17.70;60.26;99268.47;4918152;29;20048;-79
2022/11/22 22:03:48;;;;;;;13.45;6.10;;;;;;;17.69;60.38;99267.66;4918071;29;20048;-81
2022/11/22 22:06:16;;;;;;;9.57;6.05;;;;;;;17.69;60.40;99270.31;4918444;29;20047;-80
2022/11/22 22:08:43;;;;;;;13.10;5.82;;;;;;;17.69;60.46;99282.88;4916796;29;20059;-79
2022/11/22 22:11:11;;;;;;;12.98;6.05;;;;;;;17.69;60.58;99278.34;4918205;29;20079;-80
2022/11/22 22:13:38;;;;;;;8.52;5.60;;;;;;;17.70;60.52;99287.22;4918063;29;20074;-79
2022/11/22 22:16:07;;;;;;;9.88;5.80;;;;;;;17.70;60.24;99290.75;4917617;29;20126;-79
2022/11/22 22:18:36;;;;;;;11.45;6.53;;;;;;;17.71;60.41;99292.44;4917400;29;20048;-80
2022/11/22 22:21:06;;;;;;;9.40;5.53;;;;;;;17.69;60.20;99289.06;4917606;29;20048;-79
2022/11/22 22:23:35;;;;;;;7.70;4.90;;;;;;;17.69;59.75;99288.22;4918281;29;20056;-82
2022/11/22 22:26:05;;;;;;;12.00;5.45;;;;;;;17.70;59.91;99285.41;4917939;29;20386;-78
2022/11/22 22:28:34;;;;;;;9.70;4.88;;;;;;;17.71;60.03;99295.09;4920681;29;20607;-79
2022/11/22 22:31:11;;;;;;;9.68;5.15;;;;;;;17.71;59.83;99294.28;4920075;29;20048;-79
2022/11/22 22:33:40;;;;;;;9.10;4.93;;;;;;;17.70;59.85;99309.50;4902199;29;20052;-79
2022/11/22 22:36:09;;;;;;;9.90;4.82;;;;;;;17.71;59.72;99308.50;4919271;29;20047;-79
2022/11/22 22:38:37;;;;;;;9.98;5.07;;;;;;;17.71;59.86;99313.00;4920405;29;20051;-78
2022/11/22 22:41:08;;;;;;;11.20;5.13;;;;;;;17.70;59.71;99312.16;4920834;29;20051;-79
2022/11/22 22:43:38;;;;;;;9.52;4.30;;;;;;;17.71;59.88;99311.16;4920739;29;20052;-78
2022/11/22 22:46:18;;;;;;;7.63;4.93;;;;;;;17.71;60.01;99329.91;4924017;29;20044;-78
2022/11/22 22:48:47;;;;;;;8.32;4.43;;;;;;;17.72;60.04;99326.22;4932568;29;20052;-77
2022/11/22 22:51:20;;;;;;;7.68;4.60;;;;;;;17.72;60.24;99328.91;4930713;29;20523;-78
2022/11/22 22:53:48;;;;;;;9.40;4.47;;;;;;;17.72;60.20;99336.94;4920097;29;20079;-78
2022/11/22 22:56:17;;;;;;;10.10;4.88;;;;;;;17.73;60.09;99353.81;4919950;29;20048;-78
2022/11/22 22:58:45;;;;;;;11.43;5.25;;;;;;;17.72;60.44;99358.34;4920377;29;20408;-78
2022/11/22 23:01:18;;;;;;;6.95;4.32;;;;;;;17.73;60.39;99362.69;4920353;29;20043;-78
2022/11/22 23:03:47;;;;;;;8.05;3.60;;;;;;;17.72;60.21;99342.28;4920139;29;20496;-78
2022/11/22 23:06:15;;;;;;;9.82;4.50;;;;;;;17.73;60.33;99343.94;4919846;29;20048;-78
2022/11/22 23:08:45;;;;;;;8.73;4.72;;;;;;;17.73;60.29;99357.34;4934396;29;20055;-79
2022/11/22 23:11:13;;;;;;;8.23;4.63;;;;;;;17.74;60.30;99361.75;4938926;29;20052;-79
2022/11/22 23:13:42;;;;;;;9.02;4.22;;;;;;;17.74;60.31;99367.09;4938964;29;20043;-78
2022/11/22 23:16:12;;;;;;;7.53;4.32;;;;;;;17.74;60.33;99366.19;4939178;29;20052;-78
2022/11/22 23:18:42;;;;;;;9.57;4.30;;;;;;;17.74;60.17;99368.88;4933559;29;20040;-78
2022/11/22 23:21:11;;;;;;;7.18;4.70;;;;;;;17.74;60.25;99367.09;4920357;29;20048;-78
2022/11/22 23:23:39;;;;;;;6.90;3.92;;;;;;;17.74;60.15;99377.81;4920149;29;20051;-79
2022/11/22 23:26:09;;;;;;;8.45;4.45;;;;;;;17.75;59.90;99373.28;4902230;29;20519;-78
2022/11/22 23:28:37;;;;;;;6.95;4.32;;;;;;;17.74;59.76;99380.47;4920201;29;20044;-78
2022/11/22 23:31:07;;;;;;;7.22;4.03;;;;;;;17.74;59.58;99382.25;4919624;29;20044;-79
2022/11/22 23:33:34;;;;;;;6.35;4.30;;;;;;;17.74;59.65;99383.16;4919902;29;20051;-78
2022/11/22 23:36:07;;;;;;;8.30;4.00;;;;;;;17.73;59.43;99385.94;4920198;29;20071;-79
2022/11/22 23:38:35;;;;;;;5.60;3.70;;;;;;;17.73;59.34;99400.16;4918672;29;20052;-79
2022/11/22 23:41:03;;;;;;;6.85;4.07;;;;;;;17.73;59.37;99402.84;4919349;29;20048;-79
2022/11/22 23:43:31;;;;;;;7.03;4.00;;;;;;;17.72;59.24;99406.50;4919336;29;20056;-79
2022/11/22 23:45:58;;;;;;;7.35;4.00;;;;;;;17.72;59.25;99400.31;4919310;29;20412;-79
2022/11/22 23:48:26;;;;;;;7.57;3.92;;;;;;;17.72;59.12;99411.03;4901600;29;20048;-79